createdAt,value
2022-09-20T00:00:13.380Z,10.46
2022-09-20T00:03:04.967Z,10.36
2022-09-20T00:05:38.140Z,10.27
2022-09-20T00:08:14.096Z,10.29
2022-09-20T00:10:46.338Z,10.23
2022-09-20T00:13:17.911Z,10.26
2022-09-20T00:15:49.524Z,10.31
2022-09-20T00:18:21.261Z,10.25
2022-09-20T00:20:54.158Z,10.19
2022-09-20T00:23:26.048Z,10.27
2022-09-20T00:26:01.779Z,10.25
2022-09-20T00:28:34.698Z,10.34
2022-09-20T00:31:04.948Z,10.40
2022-09-20T00:33:54.676Z,10.34
2022-09-20T00:36:27.267Z,10.21
2022-09-20T00:39:00.653Z,10.26
2022-09-20T00:41:34.154Z,10.32
2022-09-20T00:44:43.761Z,10.28
2022-09-20T00:47:27.692Z,10.20
2022-09-20T00:50:04.154Z,10.30
2022-09-20T00:52:37.292Z,10.29
2022-09-20T00:55:11.321Z,10.34
2022-09-20T00:57:43.641Z,10.37
2022-09-20T01:00:16.703Z,10.35
2022-09-20T01:02:53.005Z,10.25
2022-09-20T01:05:25.400Z,10.26
2022-09-20T01:07:57.972Z,10.25
2022-09-20T01:10:29.887Z,10.24
2022-09-20T01:13:01.575Z,10.17
2022-09-20T01:15:35.256Z,10.12
2022-09-20T01:18:10.543Z,10.10
2022-09-20T01:20:45.111Z,10.09
2022-09-20T01:23:32.429Z,10.06
2022-09-20T01:26:33.854Z,10.07
2022-09-20T01:29:14.435Z,10.14
2022-09-20T01:31:51.539Z,10.15
2022-09-20T01:34:30.560Z,9.96
2022-09-20T01:37:11.670Z,9.89
2022-09-20T01:39:51.028Z,9.97
2022-09-20T01:42:30.742Z,9.91
2022-09-20T01:45:07.988Z,9.96
2022-09-20T01:47:50.017Z,9.97
2022-09-20T01:50:32.569Z,9.94
2022-09-20T01:53:38.090Z,9.99
2022-09-20T01:56:32.401Z,9.98
2022-09-20T01:59:24.014Z,9.95
2022-09-20T02:02:24.908Z,9.94
2022-09-20T02:05:29.518Z,9.91
2022-09-20T02:08:25.075Z,9.95
2022-09-20T02:11:14.561Z,9.92
2022-09-20T02:13:59.464Z,9.85
2022-09-20T02:16:44.876Z,9.75
2022-09-20T02:19:42.204Z,9.86
2022-09-20T02:22:38.420Z,9.67
2022-09-20T02:25:23.178Z,9.67
2022-09-20T02:28:10.671Z,9.53
2022-09-20T02:30:54.038Z,9.62
2022-09-20T02:33:53.668Z,9.64
2022-09-20T02:36:41.385Z,9.57
2022-09-20T02:39:20.807Z,9.47
2022-09-20T02:42:01.784Z,9.58
2022-09-20T02:44:48.037Z,9.51
2022-09-20T02:47:28.821Z,9.49
2022-09-20T02:50:19.950Z,9.53
2022-09-20T02:53:06.701Z,9.58
2022-09-20T02:55:48.283Z,9.58
2022-09-20T02:58:33.118Z,9.57
2022-09-20T03:01:14.147Z,9.65
2022-09-20T03:03:57.348Z,9.61
2022-09-20T03:06:41.249Z,9.53
2022-09-20T03:09:20.340Z,9.61
2022-09-20T03:12:05.654Z,9.63
2022-09-20T03:14:43.408Z,9.70
2022-09-20T03:17:24.648Z,9.66
2022-09-20T03:20:14.501Z,9.69
2022-09-20T03:22:55.828Z,9.63
2022-09-20T03:25:51.289Z,9.66
2022-09-20T03:28:43.813Z,9.74
2022-09-20T03:31:24.477Z,9.66
2022-09-20T03:34:07.477Z,9.74
2022-09-20T03:36:57.653Z,9.65
2022-09-20T03:40:04.518Z,9.65
2022-09-20T03:42:42.483Z,9.54
2022-09-20T03:45:38.190Z,9.61
2022-09-20T03:48:30.644Z,9.54
2022-09-20T03:51:09.192Z,9.50
2022-09-20T03:54:06.179Z,9.57
2022-09-20T03:57:12.784Z,9.50
2022-09-20T04:00:04.857Z,9.67
2022-09-20T04:02:54.458Z,9.67
2022-09-20T04:05:35.469Z,9.75
2022-09-20T04:08:18.737Z,9.70
2022-09-20T04:11:03.061Z,9.64
2022-09-20T04:13:39.056Z,9.51
2022-09-20T04:16:26.759Z,9.50
2022-09-20T04:19:04.253Z,9.46
2022-09-20T04:21:40.590Z,9.52
2022-09-20T04:24:21.327Z,9.44
2022-09-20T04:26:57.920Z,9.52
2022-09-20T04:29:37.930Z,9.53
2022-09-20T04:32:19.520Z,9.53
2022-09-20T04:35:24.224Z,9.50
2022-09-20T04:37:56.999Z,9.59
2022-09-20T04:40:39.459Z,9.65
2022-09-20T04:44:06.537Z,9.53
2022-09-20T04:47:26.164Z,9.55
2022-09-20T04:50:31.136Z,9.52
2022-09-20T04:53:34.830Z,9.49
2022-09-20T04:56:20.660Z,9.51
2022-09-20T04:59:07.882Z,9.44
2022-09-20T05:02:13.270Z,9.48
2022-09-20T05:05:15.601Z,9.45
2022-09-20T05:11:15.498Z,9.42
2022-09-20T05:14:08.196Z,9.22
2022-09-20T05:16:58.620Z,9.23
2022-09-20T05:19:35.666Z,9.34
2022-09-20T05:22:42.776Z,9.27
2022-09-20T05:25:42.304Z,9.21
2022-09-20T05:28:23.190Z,9.31
2022-09-20T05:31:00.241Z,9.30
2022-09-20T05:33:40.765Z,9.39
2022-09-20T05:36:20.513Z,9.42
2022-09-20T05:39:02.779Z,9.47
2022-09-20T05:41:42.358Z,9.48
2022-09-20T05:44:31.146Z,9.60
2022-09-20T05:47:13.191Z,9.66
2022-09-20T05:49:57.037Z,9.72
2022-09-20T05:52:47.610Z,9.73
2022-09-20T05:55:35.280Z,9.78
2022-09-20T05:58:23.641Z,9.85
2022-09-20T06:01:00.817Z,9.89
2022-09-20T06:03:40.926Z,9.92
2022-09-20T06:06:23.055Z,9.97
2022-09-20T06:09:16.972Z,10.02
2022-09-20T06:12:09.752Z,9.94
2022-09-20T06:14:50.840Z,9.99
2022-09-20T06:17:29.263Z,10.06
2022-09-20T06:20:16.423Z,10.09
2022-09-20T06:22:50.828Z,10.22
2022-09-20T06:25:27.755Z,10.23
2022-09-20T06:28:07.102Z,10.25
2022-09-20T06:30:45.696Z,10.29
2022-09-20T06:33:20.346Z,10.31
2022-09-20T06:35:59.157Z,10.33
2022-09-20T06:39:08.874Z,10.31
2022-09-20T06:41:42.093Z,10.25
2022-09-20T06:44:16.284Z,10.26
2022-09-20T06:46:48.196Z,10.23
2022-09-20T06:49:19.841Z,10.14
2022-09-20T06:51:52.199Z,10.08
2022-09-20T06:54:25.204Z,10.14
2022-09-20T06:56:57.062Z,10.24
2022-09-20T06:59:29.492Z,10.28
2022-09-20T07:02:01.232Z,10.39
2022-09-20T07:04:32.963Z,10.45
2022-09-20T07:07:09.242Z,10.49
2022-09-20T07:09:41.347Z,10.48
2022-09-20T07:12:13.133Z,10.48
2022-09-20T07:14:44.738Z,10.57
2022-09-20T07:17:16.317Z,10.64
2022-09-20T07:19:50.837Z,10.59
2022-09-20T07:22:22.469Z,10.58
2022-09-20T07:24:54.144Z,10.63
2022-09-20T07:27:29.217Z,10.64
2022-09-20T07:30:02.540Z,10.72
2022-09-20T07:32:34.484Z,10.97
2022-09-20T07:35:07.384Z,11.04
2022-09-20T07:37:41.228Z,11.10
2022-09-20T07:40:14.766Z,11.11
2022-09-20T07:42:46.482Z,11.17
2022-09-20T07:45:18.246Z,11.20
2022-09-20T07:47:50.653Z,11.39
2022-09-20T07:50:22.571Z,11.50
2022-09-20T07:52:56.747Z,11.39
2022-09-20T07:55:28.814Z,11.33
2022-09-20T07:58:00.568Z,11.44
2022-09-20T08:00:32.376Z,11.57
2022-09-20T08:03:06.031Z,11.37
2022-09-20T08:05:37.736Z,11.46
2022-09-20T08:08:09.624Z,11.41
2022-09-20T08:10:41.541Z,11.43
2022-09-20T08:16:07.523Z,11.51
2022-09-20T08:18:44.377Z,11.56
2022-09-20T08:21:16.427Z,11.64
2022-09-20T08:23:49.564Z,11.57
2022-09-20T08:26:26.867Z,11.62
2022-09-20T08:29:01.198Z,11.71
2022-09-20T08:31:37.107Z,11.88
2022-09-20T08:34:10.979Z,11.93
2022-09-20T08:36:46.865Z,11.93
2022-09-20T08:42:20.770Z,12.26
2022-09-20T08:44:58.821Z,12.21
2022-09-20T08:47:33.512Z,12.05
2022-09-20T08:50:10.200Z,12.11
2022-09-20T08:52:45.619Z,12.18
2022-09-20T08:55:20.717Z,12.18
2022-09-20T08:57:55.852Z,12.11
2022-09-20T09:00:31.849Z,12.18
2022-09-20T09:03:07.670Z,12.31
2022-09-20T09:05:44.114Z,12.50
2022-09-20T09:08:18.445Z,12.65
2022-09-20T09:10:54.604Z,12.76
2022-09-20T09:13:32.953Z,12.66
2022-09-20T09:16:11.837Z,12.68
2022-09-20T09:18:46.826Z,12.76
2022-09-20T09:21:23.739Z,12.75
2022-09-20T09:24:05.507Z,12.64
2022-09-20T09:26:41.396Z,12.71
2022-09-20T09:29:19.068Z,12.92
2022-09-20T09:31:52.603Z,13.07
2022-09-20T09:34:30.171Z,13.28
2022-09-20T09:37:02.208Z,13.47
2022-09-20T09:39:38.086Z,13.63
2022-09-20T09:42:24.660Z,13.71
2022-09-20T09:45:13.853Z,13.72
2022-09-20T09:47:46.082Z,13.83
2022-09-20T09:50:26.929Z,13.79
2022-09-20T09:53:04.599Z,13.89
2022-09-20T09:56:07.954Z,14.18
2022-09-20T09:58:55.705Z,14.35
2022-09-20T10:01:38.333Z,14.45
2022-09-20T10:04:18.981Z,14.43
2022-09-20T10:06:55.452Z,14.49
2022-09-20T10:09:46.635Z,14.62
2022-09-20T10:12:36.926Z,14.70
2022-09-20T10:15:26.869Z,14.71
2022-09-20T10:18:09.777Z,14.93
2022-09-20T10:20:55.869Z,15.18
2022-09-20T10:27:09.160Z,15.52
2022-09-20T10:29:53.744Z,15.79
2022-09-20T10:32:36.025Z,15.79
2022-09-20T10:35:25.988Z,15.89
2022-09-20T10:38:15.894Z,15.64
2022-09-20T10:41:21.713Z,15.64
2022-09-20T10:44:33.470Z,15.57
2022-09-20T10:47:15.056Z,15.26
2022-09-20T10:49:57.835Z,15.30
2022-09-20T10:52:54.727Z,15.85
2022-09-20T10:55:35.893Z,16.19
2022-09-20T10:58:36.046Z,16.45
2022-09-20T11:01:18.301Z,16.70
2022-09-20T11:04:07.610Z,16.61
2022-09-20T11:06:51.688Z,16.47
2022-09-20T11:09:25.896Z,16.63
2022-09-20T11:12:04.635Z,16.76
2022-09-20T11:14:40.510Z,16.81
2022-09-20T11:17:17.562Z,16.73
2022-09-20T11:19:57.454Z,16.25
2022-09-20T11:22:32.972Z,16.63
2022-09-20T11:25:16.753Z,16.90
2022-09-20T11:27:56.574Z,17.11
2022-09-20T11:30:30.051Z,17.29
2022-09-20T11:33:08.623Z,17.43
2022-09-20T11:35:46.030Z,17.44
2022-09-20T11:38:24.898Z,17.17
2022-09-20T11:41:02.536Z,17.48
2022-09-20T11:43:35.719Z,17.14
2022-09-20T11:46:13.091Z,16.86
2022-09-20T11:48:51.040Z,16.78
2022-09-20T11:52:01.403Z,16.58
2022-09-20T11:55:01.914Z,17.13
2022-09-20T11:57:34.433Z,16.97
2022-09-20T12:00:10.122Z,17.13
2022-09-20T12:02:51.256Z,17.44
2022-09-20T12:05:33.911Z,17.82
2022-09-20T12:08:09.736Z,17.61
2022-09-20T12:10:42.885Z,17.17
2022-09-20T12:13:25.408Z,16.87
2022-09-20T12:16:04.664Z,16.58
2022-09-20T12:19:02.051Z,16.35
2022-09-20T12:21:54.024Z,16.19
2022-09-20T12:24:26.209Z,16.09
2022-09-20T12:27:00.081Z,16.22
2022-09-20T12:30:03.755Z,16.14
2022-09-20T12:32:51.936Z,16.09
2022-09-20T12:36:00.541Z,16.17
2022-09-20T12:38:46.442Z,16.18
2022-09-20T12:41:27.827Z,16.27
2022-09-20T12:44:05.220Z,16.33
2022-09-20T12:46:43.917Z,16.37
2022-09-20T12:49:58.048Z,16.32
2022-09-20T12:52:53.746Z,16.27
2022-09-20T12:55:55.288Z,16.27
2022-09-20T12:58:44.365Z,15.99
2022-09-20T13:01:38.170Z,15.65
2022-09-20T13:04:53.300Z,15.33
2022-09-20T13:08:03.869Z,15.25
2022-09-20T13:10:43.088Z,15.00
2022-09-20T13:13:37.437Z,14.86
2022-09-20T13:16:20.206Z,14.89
2022-09-20T13:19:01.111Z,15.12
2022-09-20T13:21:34.984Z,15.34
2022-09-20T13:24:08.172Z,15.54
2022-09-20T13:26:48.261Z,15.84
2022-09-20T13:29:28.774Z,16.07
2022-09-20T13:32:18.839Z,16.37
2022-09-20T13:35:08.005Z,16.56
2022-09-20T13:37:43.727Z,16.40
2022-09-20T13:40:21.942Z,16.29
2022-09-20T13:43:19.575Z,16.25
2022-09-20T13:45:48.744Z,16.63
2022-09-20T13:48:20.385Z,16.46
2022-09-20T13:50:53.794Z,16.48
2022-09-20T13:53:40.987Z,16.49
2022-09-20T13:56:18.062Z,16.59
2022-09-20T13:58:51.354Z,16.61
2022-09-20T14:01:28.784Z,16.43
2022-09-20T14:04:06.712Z,16.61
2022-09-20T14:06:38.834Z,16.60
2022-09-20T14:09:26.707Z,16.51
2022-09-20T14:11:59.114Z,16.62
2022-09-20T14:14:32.744Z,16.62
2022-09-20T14:17:08.866Z,16.64
2022-09-20T14:19:43.792Z,16.53
2022-09-20T14:22:21.405Z,16.53
2022-09-20T14:25:20.148Z,16.57
2022-09-20T14:28:07.526Z,16.77
2022-09-20T14:30:39.784Z,16.78
2022-09-20T14:33:19.469Z,16.89
2022-09-20T14:35:53.062Z,16.79
2022-09-20T14:38:27.902Z,16.67
2022-09-20T14:40:59.611Z,16.81
2022-09-20T14:43:34.960Z,16.98
2022-09-20T14:46:11.302Z,16.95
2022-09-20T14:48:45.331Z,16.86
2022-09-20T14:51:26.657Z,16.92
2022-09-20T14:54:25.600Z,17.12
2022-09-20T14:56:58.703Z,17.05
2022-09-20T14:59:37.323Z,17.19
2022-09-20T15:02:15.473Z,17.17
2022-09-20T15:04:55.761Z,17.04
2022-09-20T15:07:28.256Z,16.94
2022-09-20T15:10:00.258Z,16.94
2022-09-20T15:12:32.059Z,16.77
2022-09-20T15:15:03.738Z,16.59
2022-09-20T15:17:35.604Z,16.80
2022-09-20T15:20:13.589Z,16.84
2022-09-20T15:22:45.362Z,16.57
2022-09-20T15:25:20.827Z,16.64
2022-09-20T15:27:52.535Z,16.50
2022-09-20T15:30:24.401Z,16.29
2022-09-20T15:33:00.847Z,16.22
2022-09-20T15:35:34.684Z,16.19
2022-09-20T15:38:08.842Z,16.17
2022-09-20T15:40:41.697Z,16.03
2022-09-20T15:43:16.440Z,16.05
2022-09-20T15:45:52.906Z,15.97
2022-09-20T15:48:27.764Z,15.95
2022-09-20T15:51:05.836Z,15.85
2022-09-20T15:53:40.014Z,15.79
2022-09-20T15:56:19.302Z,15.79
2022-09-20T15:58:53.426Z,15.74
2022-09-20T16:01:25.659Z,15.60
2022-09-20T16:03:58.588Z,15.61
2022-09-20T16:06:32.884Z,15.60
2022-09-20T16:09:05.349Z,15.63
2022-09-20T16:11:38.795Z,15.46
2022-09-20T16:14:10.599Z,15.48
2022-09-20T16:16:42.482Z,15.50
2022-09-20T16:19:21.224Z,15.41
2022-09-20T16:21:57.757Z,15.37
2022-09-20T16:24:33.133Z,15.33
2022-09-20T16:27:07.291Z,15.30
2022-09-20T16:29:39.135Z,15.25
2022-09-20T16:32:10.761Z,15.22
2022-09-20T16:34:42.394Z,15.10
2022-09-20T16:37:16.973Z,15.04
2022-09-20T16:39:48.784Z,15.07
2022-09-20T16:42:20.960Z,15.03
2022-09-20T16:44:52.622Z,14.96
2022-09-20T16:47:24.985Z,14.89
2022-09-20T16:49:58.136Z,14.85
2022-09-20T16:52:29.812Z,14.84
2022-09-20T16:55:03.277Z,14.81
2022-09-20T16:57:36.766Z,14.67
2022-09-20T17:00:16.527Z,14.72
2022-09-20T17:02:49.932Z,14.77
2022-09-20T17:05:21.617Z,14.75
2022-09-20T17:07:53.406Z,14.58
2022-09-20T17:10:27.085Z,14.58
2022-09-20T17:13:00.040Z,14.53
2022-09-20T17:15:31.632Z,14.48
2022-09-20T17:18:05.677Z,14.47
2022-09-20T17:20:40.594Z,14.41
2022-09-20T17:23:12.240Z,14.41
2022-09-20T17:25:46.201Z,14.42
2022-09-20T17:28:17.831Z,14.25
2022-09-20T17:30:49.546Z,14.09
2022-09-20T17:33:21.139Z,14.13
2022-09-20T17:35:54.604Z,14.01
2022-09-20T17:38:26.459Z,13.98
2022-09-20T17:41:08.673Z,13.97
2022-09-20T17:43:42.655Z,13.98
2022-09-20T17:46:17.689Z,14.00
2022-09-20T17:48:54.739Z,14.03
2022-09-20T17:51:29.750Z,14.06
2022-09-20T17:54:02.647Z,14.07
2022-09-20T17:56:33.441Z,13.97
2022-09-20T17:59:07.242Z,13.90
2022-09-20T18:01:40.294Z,13.84
2022-09-20T18:04:12.856Z,13.83
2022-09-20T18:06:48.203Z,13.75
2022-09-20T18:09:21.965Z,13.77
2022-09-20T18:11:54.797Z,13.74
2022-09-20T18:14:25.768Z,13.66
2022-09-20T18:17:01.483Z,13.65
2022-09-20T18:19:34.326Z,13.65
2022-09-20T18:22:06.808Z,13.52
2022-09-20T18:24:38.665Z,13.42
2022-09-20T18:27:11.266Z,13.42
2022-09-20T18:29:43.199Z,13.36
2022-09-20T18:32:17.121Z,13.29
2022-09-20T18:34:51.223Z,13.23
2022-09-20T18:37:23.021Z,13.08
2022-09-20T18:39:54.684Z,13.08
2022-09-20T18:42:26.408Z,13.13
2022-09-20T18:44:58.574Z,13.07
2022-09-20T18:47:31.931Z,12.94
2022-09-20T18:50:03.777Z,12.80
2022-09-20T18:52:38.699Z,12.71
2022-09-20T18:55:14.757Z,12.84
2022-09-20T18:57:47.380Z,12.68
2022-09-20T19:00:20.740Z,12.60
2022-09-20T19:03:10.173Z,12.56
2022-09-20T19:05:49.659Z,12.49
2022-09-20T19:08:34.195Z,12.51
2022-09-20T19:11:12.507Z,12.45
2022-09-20T19:13:48.996Z,12.48
2022-09-20T19:16:23.804Z,12.35
2022-09-20T19:19:18.071Z,12.42
2022-09-20T19:21:58.482Z,12.35
2022-09-20T19:24:46.060Z,12.42
2022-09-20T19:27:18.336Z,12.46
2022-09-20T19:29:51.224Z,12.26
2022-09-20T19:32:26.158Z,12.33
2022-09-20T19:35:01.722Z,12.28
2022-09-20T19:37:41.621Z,12.12
2022-09-20T19:40:31.159Z,12.14
2022-09-20T19:43:20.915Z,12.18
2022-09-20T19:46:01.721Z,12.15
2022-09-20T19:48:39.446Z,12.09
2022-09-20T19:51:14.016Z,12.05
2022-09-20T19:53:47.504Z,12.10
2022-09-20T19:56:27.618Z,12.08
2022-09-20T19:59:01.257Z,12.02
2022-09-20T20:01:32.187Z,11.93
2022-09-20T20:04:05.724Z,11.82
2022-09-20T20:06:43.871Z,11.84
2022-09-20T20:09:24.880Z,11.84
2022-09-20T20:12:04.061Z,11.79
2022-09-20T20:14:46.030Z,11.77
2022-09-20T20:17:31.504Z,11.60
2022-09-20T20:20:16.717Z,11.66
2022-09-20T20:23:24.212Z,11.72
2022-09-20T20:26:03.301Z,11.72
2022-09-20T20:28:35.334Z,11.55
2022-09-20T20:31:12.326Z,11.40
2022-09-20T20:33:44.435Z,11.46
2022-09-20T20:36:17.136Z,11.46
2022-09-20T20:38:52.643Z,11.47
2022-09-20T20:41:24.963Z,11.44
2022-09-20T20:43:57.130Z,11.41
2022-09-20T20:46:29.129Z,11.32
2022-09-20T20:49:01.723Z,11.40
2022-09-20T20:51:33.609Z,11.48
2022-09-20T20:54:06.317Z,11.54
2022-09-20T20:56:38.340Z,11.55
2022-09-20T20:59:10.136Z,11.49
2022-09-20T21:01:44.636Z,11.36
2022-09-20T21:04:18.176Z,11.34
2022-09-20T21:06:50.326Z,11.35
2022-09-20T21:09:22.015Z,11.33
2022-09-20T21:11:53.686Z,11.36
2022-09-20T21:14:25.304Z,11.31
2022-09-20T21:16:57.234Z,11.26
2022-09-20T21:19:29.003Z,11.13
2022-09-20T21:22:00.544Z,11.20
2022-09-20T21:24:32.129Z,11.21
2022-09-20T21:27:04.681Z,11.33
2022-09-20T21:29:36.928Z,11.26
2022-09-20T21:32:08.528Z,11.09
2022-09-20T21:34:41.203Z,11.12
2022-09-20T21:37:12.952Z,11.09
2022-09-20T21:39:45.417Z,11.11
2022-09-20T21:42:17.773Z,11.15
2022-09-20T21:44:49.333Z,11.05
2022-09-20T21:47:20.923Z,11.04
2022-09-20T21:49:52.670Z,10.84
2022-09-20T21:52:24.381Z,10.96
2022-09-20T21:54:56.010Z,10.84
2022-09-20T21:57:28.937Z,10.94
2022-09-20T22:00:01.039Z,10.90
2022-09-20T22:02:34.281Z,10.75
2022-09-20T22:05:06.857Z,10.75
2022-09-20T22:07:38.467Z,10.82
2022-09-20T22:10:11.189Z,10.85
2022-09-20T22:12:42.822Z,10.77
2022-09-20T22:15:14.678Z,10.73
2022-09-20T22:17:46.281Z,10.74
2022-09-20T22:20:18.096Z,10.70
2022-09-20T22:22:49.696Z,10.66
2022-09-20T22:25:21.341Z,10.68
2022-09-20T22:27:53.005Z,10.48
2022-09-20T22:30:24.560Z,10.39
2022-09-20T22:32:56.201Z,10.43
2022-09-20T22:35:27.828Z,10.41
2022-09-20T22:38:00.176Z,10.33
2022-09-20T22:40:31.918Z,10.36
2022-09-20T22:43:03.716Z,10.18
2022-09-20T22:45:35.506Z,10.25
2022-09-20T22:48:07.205Z,10.29
2022-09-20T22:50:38.757Z,10.31
2022-09-20T22:53:10.732Z,10.29
2022-09-20T22:55:42.264Z,10.31
2022-09-20T22:58:13.851Z,10.41
2022-09-20T23:00:48.258Z,10.45
2022-09-20T23:03:19.956Z,10.51
2022-09-20T23:05:52.674Z,10.55
2022-09-20T23:08:25.114Z,10.54
2022-09-20T23:11:04.512Z,10.51
2022-09-20T23:13:36.178Z,10.35
2022-09-20T23:16:15.996Z,10.44
2022-09-20T23:18:48.574Z,10.49
2022-09-20T23:21:20.884Z,10.45
2022-09-20T23:23:57.819Z,10.38
2022-09-20T23:26:31.432Z,10.40
2022-09-20T23:29:04.969Z,10.47
2022-09-20T23:31:39.703Z,10.51
2022-09-20T23:34:13.074Z,10.43
2022-09-20T23:36:45.612Z,10.46
2022-09-20T23:39:17.590Z,10.37
2022-09-20T23:41:51.226Z,10.34
2022-09-20T23:44:24.521Z,10.36
2022-09-20T23:46:56.121Z,10.46
2022-09-20T23:49:27.744Z,10.46
2022-09-20T23:52:00.760Z,10.50
2022-09-20T23:54:32.443Z,10.55
2022-09-20T23:57:04.109Z,10.45
2022-09-20T23:59:35.764Z,10.57
